sensor_id;sensor_type;location;lat;lon;timestamp;temperature;humidity
72326;DHT22;60278;47.980;18.780;2022-12-07T00:00:24;4.33;95.97
72326;DHT22;60278;47.980;18.780;2022-12-07T00:03:57;4.37;95.87
72326;DHT22;60278;47.980;18.780;2022-12-07T00:07:34;4.37;95.56
72326;DHT22;60278;47.980;18.780;2022-12-07T00:11:08;4.36;95.54
72326;DHT22;60278;47.980;18.780;2022-12-07T00:14:39;4.34;95.86
72326;DHT22;60278;47.980;18.780;2022-12-07T00:18:10;4.37;95.87
72326;DHT22;60278;47.980;18.780;2022-12-07T00:21:41;4.28;96.36
72326;DHT22;60278;47.980;18.780;2022-12-07T00:25:12;4.33;96.20
72326;DHT22;60278;47.980;18.780;2022-12-07T00:28:51;4.48;95.29
72326;DHT22;60278;47.980;18.780;2022-12-07T00:32:22;4.38;95.60
72326;DHT22;60278;47.980;18.780;2022-12-07T00:35:57;4.36;95.92
72326;DHT22;60278;47.980;18.780;2022-12-07T00:39:28;4.18;96.32
72326;DHT22;60278;47.980;18.780;2022-12-07T00:43:00;4.22;96.60
72326;DHT22;60278;47.980;18.780;2022-12-07T00:46:31;4.27;96.12
72326;DHT22;60278;47.980;18.780;2022-12-07T00:50:02;4.31;96.33
72326;DHT22;60278;47.980;18.780;2022-12-07T00:53:36;4.36;96.17
72326;DHT22;60278;47.980;18.780;2022-12-07T00:57:07;4.31;96.21
72326;DHT22;60278;47.980;18.780;2022-12-07T01:00:40;4.25;96.42
72326;DHT22;60278;47.980;18.780;2022-12-07T01:04:11;4.34;96.41
72326;DHT22;60278;47.980;18.780;2022-12-07T01:07:42;4.30;96.71
72326;DHT22;60278;47.980;18.780;2022-12-07T01:11:16;4.36;96.33
72326;DHT22;60278;47.980;18.780;2022-12-07T01:14:48;4.33;96.53
72326;DHT22;60278;47.980;18.780;2022-12-07T01:18:19;4.24;96.82
72326;DHT22;60278;47.980;18.780;2022-12-07T01:21:50;4.22;96.60
72326;DHT22;60278;47.980;18.780;2022-12-07T01:25:21;4.28;96.51
72326;DHT22;60278;47.980;18.780;2022-12-07T01:28:52;4.20;96.72
72326;DHT22;60278;47.980;18.780;2022-12-07T01:32:25;4.25;96.80
72326;DHT22;60278;47.980;18.780;2022-12-07T01:36:04;4.18;96.66
72326;DHT22;60278;47.980;18.780;2022-12-07T01:39:35;4.34;96.64
72326;DHT22;60278;47.980;18.780;2022-12-07T01:43:27;4.44;95.87
72326;DHT22;60278;47.980;18.780;2022-12-07T01:47:00;4.27;96.28
72326;DHT22;60278;47.980;18.780;2022-12-07T01:50:32;4.38;96.01
72326;DHT22;60278;47.980;18.780;2022-12-07T01:54:03;4.36;96.12
72326;DHT22;60278;47.980;18.780;2022-12-07T01:57:37;4.22;97.18
72326;DHT22;60278;47.980;18.780;2022-12-07T02:01:10;4.17;96.89
72326;DHT22;60278;47.980;18.780;2022-12-07T02:04:41;4.27;96.96
72326;DHT22;60278;47.980;18.780;2022-12-07T02:08:12;4.36;96.27
72326;DHT22;60278;47.980;18.780;2022-12-07T02:11:44;4.41;95.93
72326;DHT22;60278;47.980;18.780;2022-12-07T02:15:15;4.40;95.62
72326;DHT22;60278;47.980;18.780;2022-12-07T02:22:54;4.31;96.51
72326;DHT22;60278;47.980;18.780;2022-12-07T02:30:27;4.38;96.06
72326;DHT22;60278;47.980;18.780;2022-12-07T02:34:08;4.38;96.05
72326;DHT22;60278;47.980;18.780;2022-12-07T02:37:47;4.36;96.28
72326;DHT22;60278;47.980;18.780;2022-12-07T02:41:36;4.28;97.03
72326;DHT22;60278;47.980;18.780;2022-12-07T02:45:10;4.45;96.08
72326;DHT22;60278;47.980;18.780;2022-12-07T02:48:45;4.47;95.85
72326;DHT22;60278;47.980;18.780;2022-12-07T02:52:16;4.41;96.20
72326;DHT22;60278;47.980;18.780;2022-12-07T02:55:47;4.33;96.44
72326;DHT22;60278;47.980;18.780;2022-12-07T03:03:13;4.37;95.96
72326;DHT22;60278;47.980;18.780;2022-12-07T03:06:51;4.25;96.84
72326;DHT22;60278;47.980;18.780;2022-12-07T03:14:13;4.41;96.40
72326;DHT22;60278;47.980;18.780;2022-12-07T03:17:47;4.24;96.87
72326;DHT22;60278;47.980;18.780;2022-12-07T03:21:22;4.40;96.37
72326;DHT22;60278;47.980;18.780;2022-12-07T03:24:57;4.31;96.97
72326;DHT22;60278;47.980;18.780;2022-12-07T03:28:34;4.25;97.22
72326;DHT22;60278;47.980;18.780;2022-12-07T03:32:14;4.24;97.12
72326;DHT22;60278;47.980;18.780;2022-12-07T03:36:22;4.25;97.08
72326;DHT22;60278;47.980;18.780;2022-12-07T03:43:37;4.21;97.47
72326;DHT22;60278;47.980;18.780;2022-12-07T03:47:16;4.33;96.87
72326;DHT22;60278;47.980;18.780;2022-12-07T03:50:56;4.28;96.97
72326;DHT22;60278;47.980;18.780;2022-12-07T03:55:08;4.24;97.31
72326;DHT22;60278;47.980;18.780;2022-12-07T03:58:40;4.25;97.04
72326;DHT22;60278;47.980;18.780;2022-12-07T04:02:13;4.21;97.35
72326;DHT22;60278;47.980;18.780;2022-12-07T04:05:44;4.31;97.03
72326;DHT22;60278;47.980;18.780;2022-12-07T04:09:15;4.21;97.53
72326;DHT22;60278;47.980;18.780;2022-12-07T04:12:47;4.30;97.49
72326;DHT22;60278;47.980;18.780;2022-12-07T04:16:18;4.17;97.97
72326;DHT22;60278;47.980;18.780;2022-12-07T04:19:49;4.22;97.68
72326;DHT22;60278;47.980;18.780;2022-12-07T04:23:20;4.22;97.73
72326;DHT22;60278;47.980;18.780;2022-12-07T04:26:51;4.22;97.73
72326;DHT22;60278;47.980;18.780;2022-12-07T04:30:22;4.27;97.60
72326;DHT22;60278;47.980;18.780;2022-12-07T04:33:53;4.28;97.29
72326;DHT22;60278;47.980;18.780;2022-12-07T04:37:24;4.38;96.51
72326;DHT22;60278;47.980;18.780;2022-12-07T04:40:55;4.38;96.71
72326;DHT22;60278;47.980;18.780;2022-12-07T04:44:28;4.36;96.77
72326;DHT22;60278;47.980;18.780;2022-12-07T04:47:59;4.36;96.67
72326;DHT22;60278;47.980;18.780;2022-12-07T04:51:30;4.27;96.96
72326;DHT22;60278;47.980;18.780;2022-12-07T04:55:01;4.31;96.88
72326;DHT22;60278;47.980;18.780;2022-12-07T04:58:32;4.34;97.15
72326;DHT22;60278;47.980;18.780;2022-12-07T05:02:03;4.31;96.91
72326;DHT22;60278;47.980;18.780;2022-12-07T05:05:34;4.27;97.25
72326;DHT22;60278;47.980;18.780;2022-12-07T05:09:05;4.38;96.64
72326;DHT22;60278;47.980;18.780;2022-12-07T05:12:36;4.37;96.71
72326;DHT22;60278;47.980;18.780;2022-12-07T05:16:07;4.28;97.13
72326;DHT22;60278;47.980;18.780;2022-12-07T05:19:38;4.28;97.25
72326;DHT22;60278;47.980;18.780;2022-12-07T05:23:10;4.25;97.49
72326;DHT22;60278;47.980;18.780;2022-12-07T05:26:41;4.31;97.38
72326;DHT22;60278;47.980;18.780;2022-12-07T05:30:12;4.28;97.22
72326;DHT22;60278;47.980;18.780;2022-12-07T05:33:43;4.36;97.12
72326;DHT22;60278;47.980;18.780;2022-12-07T05:37:14;4.42;96.79
72326;DHT22;60278;47.980;18.780;2022-12-07T05:40:45;4.41;97.15
72326;DHT22;60278;47.980;18.780;2022-12-07T05:44:16;4.40;96.94
72326;DHT22;60278;47.980;18.780;2022-12-07T05:47:48;4.21;97.87
72326;DHT22;60278;47.980;18.780;2022-12-07T05:51:19;4.37;97.57
72326;DHT22;60278;47.980;18.780;2022-12-07T05:54:50;4.31;97.68
72326;DHT22;60278;47.980;18.780;2022-12-07T05:58:21;4.30;97.46
72326;DHT22;60278;47.980;18.780;2022-12-07T06:02:13;4.38;97.12
72326;DHT22;60278;47.980;18.780;2022-12-07T06:05:44;4.42;96.88
72326;DHT22;60278;47.980;18.780;2022-12-07T06:09:16;4.40;97.04
72326;DHT22;60278;47.980;18.780;2022-12-07T06:12:47;4.28;97.81
72326;DHT22;60278;47.980;18.780;2022-12-07T06:16:18;4.31;97.74
72326;DHT22;60278;47.980;18.780;2022-12-07T06:19:49;4.24;97.92
72326;DHT22;60278;47.980;18.780;2022-12-07T06:23:20;4.31;97.68
72326;DHT22;60278;47.980;18.780;2022-12-07T06:26:52;4.25;97.80
72326;DHT22;60278;47.980;18.780;2022-12-07T06:30:23;4.27;97.82
72326;DHT22;60278;47.980;18.780;2022-12-07T06:33:59;4.28;97.93
72326;DHT22;60278;47.980;18.780;2022-12-07T06:37:30;4.20;98.03
72326;DHT22;60278;47.980;18.780;2022-12-07T06:41:01;4.25;97.85
72326;DHT22;60278;47.980;18.780;2022-12-07T06:44:32;4.13;98.36
72326;DHT22;60278;47.980;18.780;2022-12-07T06:48:03;4.17;98.21
72326;DHT22;60278;47.980;18.780;2022-12-07T06:51:35;4.18;98.21
72326;DHT22;60278;47.980;18.780;2022-12-07T06:55:07;4.20;97.76
72326;DHT22;60278;47.980;18.780;2022-12-07T06:58:39;4.21;97.85
72326;DHT22;60278;47.980;18.780;2022-12-07T07:02:10;4.24;96.91
72326;DHT22;60278;47.980;18.780;2022-12-07T07:05:41;4.25;96.74
72326;DHT22;60278;47.980;18.780;2022-12-07T07:09:12;4.27;96.93
72326;DHT22;60278;47.980;18.780;2022-12-07T07:12:43;4.22;96.80
72326;DHT22;60278;47.980;18.780;2022-12-07T07:16:14;4.30;96.47
72326;DHT22;60278;47.980;18.780;2022-12-07T07:19:46;4.34;95.92
72326;DHT22;60278;47.980;18.780;2022-12-07T07:23:18;4.37;95.80
72326;DHT22;60278;47.980;18.780;2022-12-07T07:26:49;4.44;95.62
72326;DHT22;60278;47.980;18.780;2022-12-07T07:30:20;4.41;95.65
72326;DHT22;60278;47.980;18.780;2022-12-07T07:33:51;4.45;95.62
72326;DHT22;60278;47.980;18.780;2022-12-07T07:37:23;4.51;95.73
72326;DHT22;60278;47.980;18.780;2022-12-07T07:40:54;4.51;94.99
72326;DHT22;60278;47.980;18.780;2022-12-07T07:44:25;4.47;95.96
72326;DHT22;60278;47.980;18.780;2022-12-07T07:47:56;4.55;95.30
72326;DHT22;60278;47.980;18.780;2022-12-07T07:51:27;4.55;96.56
72326;DHT22;60278;47.980;18.780;2022-12-07T07:54:58;4.62;95.73
72326;DHT22;60278;47.980;18.780;2022-12-07T07:58:29;4.61;95.33
72326;DHT22;60278;47.980;18.780;2022-12-07T08:02:01;4.58;95.89
72326;DHT22;60278;47.980;18.780;2022-12-07T08:05:31;4.64;95.44
72326;DHT22;60278;47.980;18.780;2022-12-07T08:09:03;4.59;94.81
72326;DHT22;60278;47.980;18.780;2022-12-07T08:12:37;4.71;94.64
72326;DHT22;60278;47.980;18.780;2022-12-07T08:16:29;4.75;95.47
72326;DHT22;60278;47.980;18.780;2022-12-07T08:20:00;4.69;95.26
72326;DHT22;60278;47.980;18.780;2022-12-07T08:23:31;4.78;94.59
72326;DHT22;60278;47.980;18.780;2022-12-07T08:27:02;4.83;94.54
72326;DHT22;60278;47.980;18.780;2022-12-07T08:30:33;4.76;95.27
72326;DHT22;60278;47.980;18.780;2022-12-07T08:34:04;4.88;95.06
72326;DHT22;60278;47.980;18.780;2022-12-07T08:37:36;4.97;94.71
72326;DHT22;60278;47.980;18.780;2022-12-07T08:41:08;5.02;95.04
72326;DHT22;60278;47.980;18.780;2022-12-07T08:44:39;4.96;94.15
72326;DHT22;60278;47.980;18.780;2022-12-07T08:48:12;5.20;94.59
72326;DHT22;60278;47.980;18.780;2022-12-07T08:51:44;5.12;93.52
72326;DHT22;60278;47.980;18.780;2022-12-07T08:55:15;5.26;94.07
72326;DHT22;60278;47.980;18.780;2022-12-07T08:58:46;5.27;94.27
72326;DHT22;60278;47.980;18.780;2022-12-07T09:02:17;5.18;93.40
72326;DHT22;60278;47.980;18.780;2022-12-07T09:05:49;5.26;93.53
72326;DHT22;60278;47.980;18.780;2022-12-07T09:09:19;5.50;93.41
72326;DHT22;60278;47.980;18.780;2022-12-07T09:12:51;5.43;92.73
72326;DHT22;60278;47.980;18.780;2022-12-07T09:16:22;5.44;93.41
72326;DHT22;60278;47.980;18.780;2022-12-07T09:19:53;5.43;93.15
72326;DHT22;60278;47.980;18.780;2022-12-07T09:23:25;5.37;93.79
72326;DHT22;60278;47.980;18.780;2022-12-07T09:26:57;5.44;92.93
72326;DHT22;60278;47.980;18.780;2022-12-07T09:30:28;5.58;93.72
72326;DHT22;60278;47.980;18.780;2022-12-07T09:34:00;5.41;92.19
72326;DHT22;60278;47.980;18.780;2022-12-07T09:37:31;5.55;92.55
72326;DHT22;60278;47.980;18.780;2022-12-07T09:41:06;5.70;91.95
72326;DHT22;60278;47.980;18.780;2022-12-07T09:44:40;5.85;90.97
72326;DHT22;60278;47.980;18.780;2022-12-07T09:48:17;5.85;90.89
72326;DHT22;60278;47.980;18.780;2022-12-07T09:52:01;5.78;90.44
72326;DHT22;60278;47.980;18.780;2022-12-07T09:55:33;5.70;90.51
72326;DHT22;60278;47.980;18.780;2022-12-07T09:59:06;5.71;92.06
72326;DHT22;60278;47.980;18.780;2022-12-07T10:02:46;5.81;92.41
72326;DHT22;60278;47.980;18.780;2022-12-07T10:06:18;5.71;90.95
72326;DHT22;60278;47.980;18.780;2022-12-07T10:09:49;5.65;91.60
72326;DHT22;60278;47.980;18.780;2022-12-07T10:13:40;5.57;92.09
72326;DHT22;60278;47.980;18.780;2022-12-07T10:21:11;5.85;91.02
72326;DHT22;60278;47.980;18.780;2022-12-07T10:24:44;5.67;91.59
72326;DHT22;60278;47.980;18.780;2022-12-07T10:28:18;5.81;91.23
72326;DHT22;60278;47.980;18.780;2022-12-07T10:32:02;5.67;92.97
72326;DHT22;60278;47.980;18.780;2022-12-07T10:35:42;5.58;91.85
72326;DHT22;60278;47.980;18.780;2022-12-07T10:39:16;5.60;92.22
72326;DHT22;60278;47.980;18.780;2022-12-07T10:43:04;5.61;91.97
72326;DHT22;60278;47.980;18.780;2022-12-07T10:46:57;5.85;90.31
72326;DHT22;60278;47.980;18.780;2022-12-07T10:55:12;5.84;89.60
72326;DHT22;60278;47.980;18.780;2022-12-07T11:07:06;6.03;88.98
72326;DHT22;60278;47.980;18.780;2022-12-07T11:11:01;6.09;89.92
72326;DHT22;60278;47.980;18.780;2022-12-07T11:14:56;6.13;89.04
72326;DHT22;60278;47.980;18.780;2022-12-07T11:22:14;6.37;88.31
72326;DHT22;60278;47.980;18.780;2022-12-07T11:37:13;7.00;86.62
72326;DHT22;60278;47.980;18.780;2022-12-07T11:40:50;6.94;86.50
72326;DHT22;60278;47.980;18.780;2022-12-07T11:44:53;6.81;87.82
72326;DHT22;60278;47.980;18.780;2022-12-07T11:48:33;6.88;87.58
72326;DHT22;60278;47.980;18.780;2022-12-07T11:52:06;6.71;88.81
72326;DHT22;60278;47.980;18.780;2022-12-07T11:56:09;6.94;87.84
72326;DHT22;60278;47.980;18.780;2022-12-07T11:59:44;7.21;85.84
72326;DHT22;60278;47.980;18.780;2022-12-07T12:03:27;7.01;88.06
72326;DHT22;60278;47.980;18.780;2022-12-07T12:07:02;6.81;87.39
72326;DHT22;60278;47.980;18.780;2022-12-07T12:10:59;7.38;84.83
72326;DHT22;60278;47.980;18.780;2022-12-07T12:18:35;8.90;81.39
72326;DHT22;60278;47.980;18.780;2022-12-07T12:22:17;8.97;79.53
72326;DHT22;60278;47.980;18.780;2022-12-07T12:26:01;9.03;80.44
72326;DHT22;60278;47.980;18.780;2022-12-07T12:29:38;9.31;80.68
72326;DHT22;60278;47.980;18.780;2022-12-07T12:33:20;9.62;78.95
72326;DHT22;60278;47.980;18.780;2022-12-07T12:36:53;9.71;78.00
72326;DHT22;60278;47.980;18.780;2022-12-07T12:43:55;8.97;78.04
72326;DHT22;60278;47.980;18.780;2022-12-07T12:47:41;8.41;80.39
72326;DHT22;60278;47.980;18.780;2022-12-07T12:51:38;8.27;80.23
72326;DHT22;60278;47.980;18.780;2022-12-07T12:58:42;8.08;80.89
72326;DHT22;60278;47.980;18.780;2022-12-07T13:02:36;7.91;81.96
72326;DHT22;60278;47.980;18.780;2022-12-07T13:06:40;7.70;82.01
72326;DHT22;60278;47.980;18.780;2022-12-07T13:22:00;7.41;84.82
72326;DHT22;60278;47.980;18.780;2022-12-07T13:25:37;7.55;83.50
72326;DHT22;60278;47.980;18.780;2022-12-07T13:29:17;7.60;83.17
72326;DHT22;60278;47.980;18.780;2022-12-07T13:32:53;7.69;83.43
72326;DHT22;60278;47.980;18.780;2022-12-07T13:36:33;7.46;85.43
72326;DHT22;60278;47.980;18.780;2022-12-07T13:40:18;7.36;84.78
72326;DHT22;60278;47.980;18.780;2022-12-07T13:47:43;7.05;85.43
72326;DHT22;60278;47.980;18.780;2022-12-07T13:51:28;6.81;84.70
72326;DHT22;60278;47.980;18.780;2022-12-07T13:55:14;6.56;84.57
72326;DHT22;60278;47.980;18.780;2022-12-07T13:58:46;6.53;84.40
72326;DHT22;60278;47.980;18.780;2022-12-07T14:02:28;6.40;84.81
72326;DHT22;60278;47.980;18.780;2022-12-07T14:09:57;6.02;86.56
72326;DHT22;60278;47.980;18.780;2022-12-07T14:13:36;5.97;86.87
72326;DHT22;60278;47.980;18.780;2022-12-07T14:17:15;5.90;86.80
72326;DHT22;60278;47.980;18.780;2022-12-07T14:20:47;5.47;88.60
72326;DHT22;60278;47.980;18.780;2022-12-07T14:24:19;5.48;88.18
72326;DHT22;60278;47.980;18.780;2022-12-07T14:27:59;5.27;88.92
72326;DHT22;60278;47.980;18.780;2022-12-07T14:31:32;5.16;88.83
72326;DHT22;60278;47.980;18.780;2022-12-07T14:35:10;4.83;90.38
72326;DHT22;60278;47.980;18.780;2022-12-07T14:38:41;4.71;91.65
72326;DHT22;60278;47.980;18.780;2022-12-07T14:42:12;4.45;92.39
72326;DHT22;60278;47.980;18.780;2022-12-07T14:45:43;4.34;92.42
72326;DHT22;60278;47.980;18.780;2022-12-07T14:49:15;4.27;93.41
72326;DHT22;60278;47.980;18.780;2022-12-07T14:52:49;4.14;93.33
72326;DHT22;60278;47.980;18.780;2022-12-07T14:56:22;4.17;92.73
72326;DHT22;60278;47.980;18.780;2022-12-07T14:59:53;3.91;93.50
72326;DHT22;60278;47.980;18.780;2022-12-07T15:03:24;3.80;94.01
72326;DHT22;60278;47.980;18.780;2022-12-07T15:07:01;3.75;93.92
72326;DHT22;60278;47.980;18.780;2022-12-07T15:10:33;3.72;94.33
72326;DHT22;60278;47.980;18.780;2022-12-07T15:14:04;3.80;93.97
72326;DHT22;60278;47.980;18.780;2022-12-07T15:17:44;3.73;94.25
72326;DHT22;60278;47.980;18.780;2022-12-07T15:21:15;3.82;94.73
72326;DHT22;60278;47.980;18.780;2022-12-07T15:24:47;3.66;94.28
72326;DHT22;60278;47.980;18.780;2022-12-07T15:28:18;3.75;93.81
72326;DHT22;60278;47.980;18.780;2022-12-07T15:31:50;4.00;92.16
72326;DHT22;60278;47.980;18.780;2022-12-07T15:35:21;3.85;92.60
72326;DHT22;60278;47.980;18.780;2022-12-07T15:38:52;3.59;93.99
72326;DHT22;60278;47.980;18.780;2022-12-07T15:42:23;3.66;93.29
72326;DHT22;60278;47.980;18.780;2022-12-07T15:45:54;3.76;92.53
72326;DHT22;60278;47.980;18.780;2022-12-07T15:49:26;3.38;94.42
72326;DHT22;60278;47.980;18.780;2022-12-07T15:52:58;3.21;94.68
72326;DHT22;60278;47.980;18.780;2022-12-07T15:56:29;3.00;95.37
72326;DHT22;60278;47.980;18.780;2022-12-07T16:00:00;3.03;95.09
72326;DHT22;60278;47.980;18.780;2022-12-07T16:03:31;2.87;95.09
72326;DHT22;60278;47.980;18.780;2022-12-07T16:07:02;2.93;95.24
72326;DHT22;60278;47.980;18.780;2022-12-07T16:10:34;2.98;95.69
72326;DHT22;60278;47.980;18.780;2022-12-07T16:14:05;2.96;93.61
72326;DHT22;60278;47.980;18.780;2022-12-07T16:17:36;2.76;95.71
72326;DHT22;60278;47.980;18.780;2022-12-07T16:21:07;2.69;95.53
72326;DHT22;60278;47.980;18.780;2022-12-07T16:24:38;2.73;94.12
72326;DHT22;60278;47.980;18.780;2022-12-07T16:28:09;2.67;94.25
72326;DHT22;60278;47.980;18.780;2022-12-07T16:31:40;2.84;92.46
72326;DHT22;60278;47.980;18.780;2022-12-07T16:35:12;3.14;90.03
72326;DHT22;60278;47.980;18.780;2022-12-07T16:38:43;3.08;89.53
72326;DHT22;60278;47.980;18.780;2022-12-07T16:42:14;3.22;89.42
72326;DHT22;60278;47.980;18.780;2022-12-07T16:45:46;3.46;90.76
72326;DHT22;60278;47.980;18.780;2022-12-07T16:49:17;3.29;91.10
72326;DHT22;60278;47.980;18.780;2022-12-07T16:52:49;3.35;91.83
72326;DHT22;60278;47.980;18.780;2022-12-07T16:56:20;3.46;91.42
72326;DHT22;60278;47.980;18.780;2022-12-07T16:59:52;3.28;92.75
72326;DHT22;60278;47.980;18.780;2022-12-07T17:03:23;3.07;93.49
72326;DHT22;60278;47.980;18.780;2022-12-07T17:06:54;2.93;93.79
72326;DHT22;60278;47.980;18.780;2022-12-07T17:10:25;2.96;92.51
72326;DHT22;60278;47.980;18.780;2022-12-07T17:13:56;2.93;92.19
72326;DHT22;60278;47.980;18.780;2022-12-07T17:17:55;2.61;93.71
72326;DHT22;60278;47.980;18.780;2022-12-07T17:21:26;2.48;93.03
72326;DHT22;60278;47.980;18.780;2022-12-07T17:24:57;2.48;93.29
72326;DHT22;60278;47.980;18.780;2022-12-07T17:28:28;2.61;91.61
72326;DHT22;60278;47.980;18.780;2022-12-07T17:31:59;2.76;91.51
72326;DHT22;60278;47.980;18.780;2022-12-07T17:35:30;3.03;90.10
72326;DHT22;60278;47.980;18.780;2022-12-07T17:39:06;3.07;90.19
72326;DHT22;60278;47.980;18.780;2022-12-07T17:42:37;2.49;92.95
72326;DHT22;60278;47.980;18.780;2022-12-07T17:46:10;2.29;94.92
72326;DHT22;60278;47.980;18.780;2022-12-07T17:49:41;2.64;92.96
72326;DHT22;60278;47.980;18.780;2022-12-07T17:53:12;2.25;94.08
72326;DHT22;60278;47.980;18.780;2022-12-07T17:56:44;2.21;95.20
72326;DHT22;60278;47.980;18.780;2022-12-07T18:00:17;2.33;93.27
72326;DHT22;60278;47.980;18.780;2022-12-07T18:03:49;2.28;93.97
72326;DHT22;60278;47.980;18.780;2022-12-07T18:07:20;2.35;93.44
72326;DHT22;60278;47.980;18.780;2022-12-07T18:10:58;2.32;94.55
72326;DHT22;60278;47.980;18.780;2022-12-07T18:14:29;2.28;93.74
72326;DHT22;60278;47.980;18.780;2022-12-07T18:18:00;2.26;94.83
72326;DHT22;60278;47.980;18.780;2022-12-07T18:21:31;2.33;94.99
72326;DHT22;60278;47.980;18.780;2022-12-07T18:25:03;2.33;93.58
72326;DHT22;60278;47.980;18.780;2022-12-07T18:28:34;2.53;91.13
72326;DHT22;60278;47.980;18.780;2022-12-07T18:32:05;2.53;91.56
72326;DHT22;60278;47.980;18.780;2022-12-07T18:35:36;2.69;91.21
72326;DHT22;60278;47.980;18.780;2022-12-07T18:39:07;2.59;91.66
72326;DHT22;60278;47.980;18.780;2022-12-07T18:42:38;2.66;90.75
72326;DHT22;60278;47.980;18.780;2022-12-07T18:46:11;2.73;90.64
72326;DHT22;60278;47.980;18.780;2022-12-07T18:49:42;2.63;90.94
72326;DHT22;60278;47.980;18.780;2022-12-07T18:53:13;2.84;89.57
72326;DHT22;60278;47.980;18.780;2022-12-07T18:56:44;3.00;88.90
72326;DHT22;60278;47.980;18.780;2022-12-07T19:00:16;3.04;88.35
72326;DHT22;60278;47.980;18.780;2022-12-07T19:03:47;3.05;88.87
72326;DHT22;60278;47.980;18.780;2022-12-07T19:07:18;3.08;88.88
72326;DHT22;60278;47.980;18.780;2022-12-07T19:10:49;3.03;90.73
72326;DHT22;60278;47.980;18.780;2022-12-07T19:14:26;3.05;88.74
72326;DHT22;60278;47.980;18.780;2022-12-07T19:18:15;2.89;90.53
72326;DHT22;60278;47.980;18.780;2022-12-07T19:21:46;3.01;89.17
72326;DHT22;60278;47.980;18.780;2022-12-07T19:25:17;3.21;88.27
72326;DHT22;60278;47.980;18.780;2022-12-07T19:28:48;3.41;86.57
72326;DHT22;60278;47.980;18.780;2022-12-07T19:32:19;3.42;86.46
72326;DHT22;60278;47.980;18.780;2022-12-07T19:35:51;3.36;86.82
72326;DHT22;60278;47.980;18.780;2022-12-07T19:39:22;3.41;88.08
72326;DHT22;60278;47.980;18.780;2022-12-07T19:42:53;3.35;87.02
72326;DHT22;60278;47.980;18.780;2022-12-07T19:46:24;3.32;87.37
72326;DHT22;60278;47.980;18.780;2022-12-07T19:49:57;3.36;87.35
72326;DHT22;60278;47.980;18.780;2022-12-07T19:53:30;3.36;87.62
72326;DHT22;60278;47.980;18.780;2022-12-07T19:57:02;3.51;85.75
72326;DHT22;60278;47.980;18.780;2022-12-07T20:00:35;3.62;85.87
72326;DHT22;60278;47.980;18.780;2022-12-07T20:04:14;3.38;88.46
72326;DHT22;60278;47.980;18.780;2022-12-07T20:07:49;3.28;88.63
72326;DHT22;60278;47.980;18.780;2022-12-07T20:11:20;3.34;87.31
72326;DHT22;60278;47.980;18.780;2022-12-07T20:15:09;3.29;87.06
72326;DHT22;60278;47.980;18.780;2022-12-07T20:18:40;3.07;90.70
72326;DHT22;60278;47.980;18.780;2022-12-07T20:22:11;3.22;87.88
72326;DHT22;60278;47.980;18.780;2022-12-07T20:25:42;3.34;87.84
72326;DHT22;60278;47.980;18.780;2022-12-07T20:29:15;3.29;86.84
72326;DHT22;60278;47.980;18.780;2022-12-07T20:32:48;3.34;87.25
72326;DHT22;60278;47.980;18.780;2022-12-07T20:36:19;3.32;86.81
72326;DHT22;60278;47.980;18.780;2022-12-07T20:39:50;3.22;87.36
72326;DHT22;60278;47.980;18.780;2022-12-07T20:43:21;3.36;86.59
72326;DHT22;60278;47.980;18.780;2022-12-07T20:46:52;3.34;86.74
72326;DHT22;60278;47.980;18.780;2022-12-07T20:50:23;3.32;87.34
72326;DHT22;60278;47.980;18.780;2022-12-07T20:53:55;3.48;85.80
72326;DHT22;60278;47.980;18.780;2022-12-07T20:57:26;3.41;86.82
72326;DHT22;60278;47.980;18.780;2022-12-07T21:01:01;3.63;85.83
72326;DHT22;60278;47.980;18.780;2022-12-07T21:04:32;3.34;87.41
72326;DHT22;60278;47.980;18.780;2022-12-07T21:08:03;3.31;87.66
72326;DHT22;60278;47.980;18.780;2022-12-07T21:11:34;3.35;88.14
72326;DHT22;60278;47.980;18.780;2022-12-07T21:15:06;3.31;88.31
72326;DHT22;60278;47.980;18.780;2022-12-07T21:18:37;3.48;87.69
72326;DHT22;60278;47.980;18.780;2022-12-07T21:22:09;3.45;87.55
72326;DHT22;60278;47.980;18.780;2022-12-07T21:25:40;3.45;88.10
72326;DHT22;60278;47.980;18.780;2022-12-07T21:29:11;3.31;89.42
72326;DHT22;60278;47.980;18.780;2022-12-07T21:32:42;3.39;89.73
72326;DHT22;60278;47.980;18.780;2022-12-07T21:36:16;3.48;89.63
72326;DHT22;60278;47.980;18.780;2022-12-07T21:39:47;3.42;90.02
72326;DHT22;60278;47.980;18.780;2022-12-07T21:43:18;3.51;90.08
72326;DHT22;60278;47.980;18.780;2022-12-07T21:46:49;3.41;91.06
72326;DHT22;60278;47.980;18.780;2022-12-07T21:50:20;3.31;91.14
72326;DHT22;60278;47.980;18.780;2022-12-07T21:53:53;3.25;92.03
72326;DHT22;60278;47.980;18.780;2022-12-07T21:57:24;3.27;91.87
72326;DHT22;60278;47.980;18.780;2022-12-07T22:00:56;3.34;91.72
72326;DHT22;60278;47.980;18.780;2022-12-07T22:04:27;3.46;91.21
72326;DHT22;60278;47.980;18.780;2022-12-07T22:07:58;3.55;90.76
72326;DHT22;60278;47.980;18.780;2022-12-07T22:11:29;3.58;90.78
72326;DHT22;60278;47.980;18.780;2022-12-07T22:15:00;3.55;91.24
72326;DHT22;60278;47.980;18.780;2022-12-07T22:18:37;3.43;92.07
72326;DHT22;60278;47.980;18.780;2022-12-07T22:22:12;3.59;91.32
72326;DHT22;60278;47.980;18.780;2022-12-07T22:25:44;3.54;91.61
72326;DHT22;60278;47.980;18.780;2022-12-07T22:29:15;3.58;91.41
72326;DHT22;60278;47.980;18.780;2022-12-07T22:32:46;3.56;91.16
72326;DHT22;60278;47.980;18.780;2022-12-07T22:36:17;3.51;92.02
72326;DHT22;60278;47.980;18.780;2022-12-07T22:39:49;3.46;91.69
72326;DHT22;60278;47.980;18.780;2022-12-07T22:43:20;3.65;90.68
72326;DHT22;60278;47.980;18.780;2022-12-07T22:46:51;3.70;90.51
72326;DHT22;60278;47.980;18.780;2022-12-07T22:50:22;3.70;90.23
72326;DHT22;60278;47.980;18.780;2022-12-07T22:53:54;3.55;91.20
72326;DHT22;60278;47.980;18.780;2022-12-07T22:57:28;3.11;93.18
72326;DHT22;60278;47.980;18.780;2022-12-07T23:01:06;2.57;95.23
72326;DHT22;60278;47.980;18.780;2022-12-07T23:04:37;2.73;94.21
72326;DHT22;60278;47.980;18.780;2022-12-07T23:08:08;2.69;94.50
72326;DHT22;60278;47.980;18.780;2022-12-07T23:11:41;2.67;94.09
72326;DHT22;60278;47.980;18.780;2022-12-07T23:15:35;2.90;93.07
72326;DHT22;60278;47.980;18.780;2022-12-07T23:19:06;2.79;93.47
72326;DHT22;60278;47.980;18.780;2022-12-07T23:22:37;2.96;92.39
72326;DHT22;60278;47.980;18.780;2022-12-07T23:26:09;2.90;91.91
72326;DHT22;60278;47.980;18.780;2022-12-07T23:29:41;2.84;92.30
72326;DHT22;60278;47.980;18.780;2022-12-07T23:33:12;2.86;92.05
72326;DHT22;60278;47.980;18.780;2022-12-07T23:36:43;2.75;92.58
72326;DHT22;60278;47.980;18.780;2022-12-07T23:40:14;2.73;92.80
72326;DHT22;60278;47.980;18.780;2022-12-07T23:43:45;2.59;93.22
72326;DHT22;60278;47.980;18.780;2022-12-07T23:47:16;2.54;93.46
72326;DHT22;60278;47.980;18.780;2022-12-07T23:50:47;2.45;93.55